sensor_id;sensor_type;location;lat;lon;timestamp;pressure;altitude;pressure_sealevel;temperature;humidity
50166;BME280;36071;48.140;11.516;2023-04-06T00:00:52;95730.0;;;3.5;48.1
50166;BME280;36071;48.140;11.516;2023-04-06T00:05:52;95720.0;;;3.5;48.0
50166;BME280;36071;48.140;11.516;2023-04-06T00:10:52;95640.0;;;2.8;48.5
50166;BME280;36071;48.140;11.516;2023-04-06T00:15:52;95720.0;;;3.1;48.2
50166;BME280;36071;48.140;11.516;2023-04-06T00:20:52;95720.0;;;3.3;48.1
50166;BME280;36071;48.140;11.516;2023-04-06T00:25:52;95710.0;;;3.3;48.0
50166;BME280;36071;48.140;11.516;2023-04-06T00:30:52;95710.0;;;3.2;48.7
50166;BME280;36071;48.140;11.516;2023-04-06T00:35:53;95710.0;;;3.1;48.3
50166;BME280;36071;48.140;11.516;2023-04-06T00:40:52;95720.0;;;3.0;48.4
50166;BME280;36071;48.140;11.516;2023-04-06T00:45:52;95710.0;;;3.0;48.7
50166;BME280;36071;48.140;11.516;2023-04-06T00:50:52;95710.0;;;3.0;48.6
50166;BME280;36071;48.140;11.516;2023-04-06T00:55:52;95720.0;;;2.8;49.2
50166;BME280;36071;48.140;11.516;2023-04-06T01:00:52;95710.0;;;2.8;49.0
50166;BME280;36071;48.140;11.516;2023-04-06T01:05:52;95720.0;;;2.9;48.3
50166;BME280;36071;48.140;11.516;2023-04-06T01:10:52;95720.0;;;2.8;48.3
50166;BME280;36071;48.140;11.516;2023-04-06T01:15:52;95710.0;;;2.7;48.3
50166;BME280;36071;48.140;11.516;2023-04-06T01:20:52;95710.0;;;2.7;48.6
50166;BME280;36071;48.140;11.516;2023-04-06T01:25:52;95700.0;;;2.6;49.2
50166;BME280;36071;48.140;11.516;2023-04-06T01:30:52;95700.0;;;2.5;49.4
50166;BME280;36071;48.140;11.516;2023-04-06T01:35:52;95700.0;;;2.5;49.6
50166;BME280;36071;48.140;11.516;2023-04-06T01:40:52;95700.0;;;2.4;49.4
50166;BME280;36071;48.140;11.516;2023-04-06T01:45:52;95700.0;;;2.3;49.6
50166;BME280;36071;48.140;11.516;2023-04-06T01:50:52;95700.0;;;2.2;49.8
50166;BME280;36071;48.140;11.516;2023-04-06T01:55:52;95690.0;;;2.0;51.1
50166;BME280;36071;48.140;11.516;2023-04-06T02:00:52;95690.0;;;2.0;50.4
50166;BME280;36071;48.140;11.516;2023-04-06T02:05:52;95700.0;;;2.1;50.5
50166;BME280;36071;48.140;11.516;2023-04-06T02:10:52;95700.0;;;2.1;50.4
50166;BME280;36071;48.140;11.516;2023-04-06T02:15:52;95690.0;;;2.0;50.6
50166;BME280;36071;48.140;11.516;2023-04-06T02:20:52;95690.0;;;2.0;50.8
50166;BME280;36071;48.140;11.516;2023-04-06T02:25:52;95680.0;;;2.0;51.1
50166;BME280;36071;48.140;11.516;2023-04-06T02:30:52;95690.0;;;1.9;51.4
50166;BME280;36071;48.140;11.516;2023-04-06T02:35:52;95680.0;;;1.8;51.7
50166;BME280;36071;48.140;11.516;2023-04-06T02:45:52;95680.0;;;1.8;52.0
50166;BME280;36071;48.140;11.516;2023-04-06T02:50:52;95680.0;;;1.8;52.2
50166;BME280;36071;48.140;11.516;2023-04-06T02:55:52;95670.0;;;1.7;52.4
50166;BME280;36071;48.140;11.516;2023-04-06T03:00:52;95670.0;;;1.7;52.8
50166;BME280;36071;48.140;11.516;2023-04-06T03:05:52;95680.0;;;1.6;53.3
50166;BME280;36071;48.140;11.516;2023-04-06T03:15:52;95680.0;;;1.5;53.4
50166;BME280;36071;48.140;11.516;2023-04-06T03:20:52;95670.0;;;1.5;53.7
50166;BME280;36071;48.140;11.516;2023-04-06T03:25:52;95670.0;;;1.3;54.0
50166;BME280;36071;48.140;11.516;2023-04-06T03:30:52;95680.0;;;1.3;54.2
50166;BME280;36071;48.140;11.516;2023-04-06T03:35:52;95680.0;;;1.3;54.4
50166;BME280;36071;48.140;11.516;2023-04-06T03:40:52;95680.0;;;1.3;54.3
50166;BME280;36071;48.140;11.516;2023-04-06T03:45:52;95690.0;;;1.3;54.2
50166;BME280;36071;48.140;11.516;2023-04-06T03:50:52;95690.0;;;1.3;54.3
50166;BME280;36071;48.140;11.516;2023-04-06T03:55:52;95690.0;;;1.3;54.6
50166;BME280;36071;48.140;11.516;2023-04-06T04:00:52;95690.0;;;1.2;55.0
50166;BME280;36071;48.140;11.516;2023-04-06T04:05:52;95700.0;;;1.2;54.9
50166;BME280;36071;48.140;11.516;2023-04-06T04:10:52;95700.0;;;1.1;55.7
50166;BME280;36071;48.140;11.516;2023-04-06T04:15:52;95710.0;;;1.1;55.3
50166;BME280;36071;48.140;11.516;2023-04-06T04:20:52;95710.0;;;1.0;55.7
50166;BME280;36071;48.140;11.516;2023-04-06T04:25:52;95710.0;;;1.0;56.0
50166;BME280;36071;48.140;11.516;2023-04-06T04:30:52;95700.0;;;1.0;56.3
50166;BME280;36071;48.140;11.516;2023-04-06T04:35:52;95710.0;;;1.0;56.2
50166;BME280;36071;48.140;11.516;2023-04-06T04:40:52;95710.0;;;1.0;56.3
50166;BME280;36071;48.140;11.516;2023-04-06T04:45:52;95720.0;;;0.9;56.4
50166;BME280;36071;48.140;11.516;2023-04-06T04:50:52;95710.0;;;1.0;56.0
50166;BME280;36071;48.140;11.516;2023-04-06T04:55:52;95720.0;;;0.9;56.5
50166;BME280;36071;48.140;11.516;2023-04-06T05:00:52;95710.0;;;0.9;56.8
50166;BME280;36071;48.140;11.516;2023-04-06T05:05:52;95710.0;;;1.0;57.1
50166;BME280;36071;48.140;11.516;2023-04-06T05:10:52;95710.0;;;1.0;57.0
50166;BME280;36071;48.140;11.516;2023-04-06T05:15:52;95710.0;;;1.1;56.8
50166;BME280;36071;48.140;11.516;2023-04-06T05:20:52;95710.0;;;1.0;57.4
50166;BME280;36071;48.140;11.516;2023-04-06T05:25:52;95720.0;;;1.2;57.0
50166;BME280;36071;48.140;11.516;2023-04-06T05:30:52;95710.0;;;1.3;56.2
50166;BME280;36071;48.140;11.516;2023-04-06T05:35:52;95710.0;;;1.3;56.0
50166;BME280;36071;48.140;11.516;2023-04-06T05:40:52;95720.0;;;1.4;55.9
50166;BME280;36071;48.140;11.516;2023-04-06T05:45:52;95720.0;;;1.4;56.3
50166;BME280;36071;48.140;11.516;2023-04-06T05:50:52;95720.0;;;1.5;56.0
50166;BME280;36071;48.140;11.516;2023-04-06T05:55:52;95720.0;;;1.5;56.9
50166;BME280;36071;48.140;11.516;2023-04-06T06:00:56;95720.0;;;1.7;55.3
50166;BME280;36071;48.140;11.516;2023-04-06T06:10:52;95730.0;;;1.8;55.2
50166;BME280;36071;48.140;11.516;2023-04-06T06:15:52;95720.0;;;2.0;54.4
50166;BME280;36071;48.140;11.516;2023-04-06T06:20:52;95730.0;;;2.0;54.5
50166;BME280;36071;48.140;11.516;2023-04-06T06:25:52;95670.0;;;1.9;54.2
50166;BME280;36071;48.140;11.516;2023-04-06T06:30:52;95730.0;;;2.3;53.9
50166;BME280;36071;48.140;11.516;2023-04-06T06:35:52;95730.0;;;2.4;53.8
50166;BME280;36071;48.140;11.516;2023-04-06T06:40:52;95720.0;;;2.7;52.7
50166;BME280;36071;48.140;11.516;2023-04-06T06:45:52;95730.0;;;3.1;52.1
50166;BME280;36071;48.140;11.516;2023-04-06T06:50:52;95730.0;;;3.5;51.3
50166;BME280;36071;48.140;11.516;2023-04-06T06:55:52;95720.0;;;4.2;50.7
50166;BME280;36071;48.140;11.516;2023-04-06T07:00:55;95730.0;;;4.8;48.2
50166;BME280;36071;48.140;11.516;2023-04-06T07:05:52;95730.0;;;5.2;46.9
50166;BME280;36071;48.140;11.516;2023-04-06T07:10:53;95730.0;;;5.4;46.1
50166;BME280;36071;48.140;11.516;2023-04-06T07:15:52;95740.0;;;5.1;46.2
50166;BME280;36071;48.140;11.516;2023-04-06T07:20:52;95740.0;;;5.2;46.3
50166;BME280;36071;48.140;11.516;2023-04-06T07:25:52;95740.0;;;5.5;45.7
50166;BME280;36071;48.140;11.516;2023-04-06T07:30:52;95740.0;;;5.7;44.7
50166;BME280;36071;48.140;11.516;2023-04-06T07:35:52;95750.0;;;5.9;45.3
50166;BME280;36071;48.140;11.516;2023-04-06T07:40:52;95750.0;;;6.3;44.0
50166;BME280;36071;48.140;11.516;2023-04-06T07:45:52;95750.0;;;6.5;43.0
50166;BME280;36071;48.140;11.516;2023-04-06T07:51:00;95740.0;;;6.9;41.6
50166;BME280;36071;48.140;11.516;2023-04-06T07:55:53;95730.0;;;7.6;40.1
50166;BME280;36071;48.140;11.516;2023-04-06T08:00:52;95730.0;;;8.1;39.0
50166;BME280;36071;48.140;11.516;2023-04-06T08:05:52;95730.0;;;8.1;37.5
50166;BME280;36071;48.140;11.516;2023-04-06T08:10:52;95740.0;;;8.2;38.4
50166;BME280;36071;48.140;11.516;2023-04-06T08:15:52;95730.0;;;8.2;37.0
50166;BME280;36071;48.140;11.516;2023-04-06T08:20:52;95740.0;;;8.4;37.2
50166;BME280;36071;48.140;11.516;2023-04-06T08:25:52;95730.0;;;9.0;36.2
50166;BME280;36071;48.140;11.516;2023-04-06T08:30:52;95740.0;;;9.4;34.3
50166;BME280;36071;48.140;11.516;2023-04-06T08:35:52;95740.0;;;9.4;33.9
50166;BME280;36071;48.140;11.516;2023-04-06T08:40:52;95730.0;;;10.0;35.3
50166;BME280;36071;48.140;11.516;2023-04-06T08:45:52;95730.0;;;10.6;31.8
50166;BME280;36071;48.140;11.516;2023-04-06T08:50:52;95730.0;;;11.0;32.3
50166;BME280;36071;48.140;11.516;2023-04-06T08:55:52;95720.0;;;11.4;31.3
50166;BME280;36071;48.140;11.516;2023-04-06T09:00:52;95720.0;;;11.4;30.9
50166;BME280;36071;48.140;11.516;2023-04-06T09:05:52;95720.0;;;11.6;32.2
50166;BME280;36071;48.140;11.516;2023-04-06T09:10:52;95730.0;;;11.6;30.4
50166;BME280;36071;48.140;11.516;2023-04-06T09:16:00;95720.0;;;12.3;29.3
50166;BME280;36071;48.140;11.516;2023-04-06T09:20:56;95710.0;;;12.7;29.4
50166;BME280;36071;48.140;11.516;2023-04-06T09:26:02;95720.0;;;13.1;28.8
50166;BME280;36071;48.140;11.516;2023-04-06T09:30:52;95710.0;;;13.5;28.1
50166;BME280;36071;48.140;11.516;2023-04-06T09:35:52;95710.0;;;13.3;28.0
50166;BME280;36071;48.140;11.516;2023-04-06T09:40:52;95710.0;;;13.4;27.9
50166;BME280;36071;48.140;11.516;2023-04-06T09:45:52;95710.0;;;12.6;29.0
50166;BME280;36071;48.140;11.516;2023-04-06T09:50:54;95710.0;;;12.4;29.0
50166;BME280;36071;48.140;11.516;2023-04-06T09:55:52;95710.0;;;13.1;30.9
50166;BME280;36071;48.140;11.516;2023-04-06T10:00:54;95700.0;;;13.0;29.1
50166;BME280;36071;48.140;11.516;2023-04-06T10:05:54;95690.0;;;12.9;28.9
50166;BME280;36071;48.140;11.516;2023-04-06T10:10:54;95700.0;;;12.2;28.3
50166;BME280;36071;48.140;11.516;2023-04-06T10:15:52;95680.0;;;11.7;29.1
50166;BME280;36071;48.140;11.516;2023-04-06T10:20:53;95690.0;;;12.3;29.2
50166;BME280;36071;48.140;11.516;2023-04-06T10:25:52;95690.0;;;13.0;28.4
50166;BME280;36071;48.140;11.516;2023-04-06T10:30:56;95680.0;;;13.9;26.8
50166;BME280;36071;48.140;11.516;2023-04-06T10:35:52;95690.0;;;13.6;27.5
50166;BME280;36071;48.140;11.516;2023-04-06T10:40:52;95670.0;;;13.9;26.5
50166;BME280;36071;48.140;11.516;2023-04-06T10:45:54;95670.0;;;15.1;25.6
50166;BME280;36071;48.140;11.516;2023-04-06T10:50:52;95660.0;;;15.3;25.8
50166;BME280;36071;48.140;11.516;2023-04-06T10:55:54;95660.0;;;15.5;25.2
50166;BME280;36071;48.140;11.516;2023-04-06T11:00:52;95660.0;;;15.7;25.0
50166;BME280;36071;48.140;11.516;2023-04-06T11:05:52;95650.0;;;16.3;24.8
50166;BME280;36071;48.140;11.516;2023-04-06T11:11:03;95650.0;;;16.3;24.4
50166;BME280;36071;48.140;11.516;2023-04-06T11:15:52;95640.0;;;17.0;25.1
50166;BME280;36071;48.140;11.516;2023-04-06T11:20:52;95640.0;;;15.3;25.0
50166;BME280;36071;48.140;11.516;2023-04-06T11:25:52;95640.0;;;16.1;24.7
50166;BME280;36071;48.140;11.516;2023-04-06T11:30:52;95640.0;;;16.3;24.2
50166;BME280;36071;48.140;11.516;2023-04-06T11:35:52;95640.0;;;16.0;25.2
50166;BME280;36071;48.140;11.516;2023-04-06T11:40:52;95630.0;;;15.4;24.9
50166;BME280;36071;48.140;11.516;2023-04-06T11:45:58;95630.0;;;15.9;25.2
50166;BME280;36071;48.140;11.516;2023-04-06T11:50:55;95610.0;;;16.5;25.9
50166;BME280;36071;48.140;11.516;2023-04-06T11:55:52;95630.0;;;16.0;24.9
50166;BME280;36071;48.140;11.516;2023-04-06T12:00:52;95610.0;;;16.6;25.4
50166;BME280;36071;48.140;11.516;2023-04-06T12:05:52;95610.0;;;16.4;26.6
50166;BME280;36071;48.140;11.516;2023-04-06T12:10:52;95610.0;;;16.6;23.3
50166;BME280;36071;48.140;11.516;2023-04-06T12:15:52;95610.0;;;16.0;23.7
50166;BME280;36071;48.140;11.516;2023-04-06T12:20:52;95600.0;;;15.5;24.5
50166;BME280;36071;48.140;11.516;2023-04-06T12:25:52;95600.0;;;16.4;24.1
50166;BME280;36071;48.140;11.516;2023-04-06T12:30:52;95600.0;;;15.8;23.9
50166;BME280;36071;48.140;11.516;2023-04-06T12:35:52;95600.0;;;16.1;23.9
50166;BME280;36071;48.140;11.516;2023-04-06T12:40:52;95570.0;;;17.0;25.3
50166;BME280;36071;48.140;11.516;2023-04-06T12:45:52;95570.0;;;16.5;24.9
50166;BME280;36071;48.140;11.516;2023-04-06T12:50:54;95580.0;;;15.4;24.4
50166;BME280;36071;48.140;11.516;2023-04-06T12:55:53;95510.0;;;14.6;25.6
50166;BME280;36071;48.140;11.516;2023-04-06T13:00:52;95580.0;;;15.1;25.1
50166;BME280;36071;48.140;11.516;2023-04-06T13:05:52;95570.0;;;14.9;25.1
50166;BME280;36071;48.140;11.516;2023-04-06T13:10:52;95570.0;;;14.2;26.3
50166;BME280;36071;48.140;11.516;2023-04-06T13:15:52;95580.0;;;14.3;25.6
50166;BME280;36071;48.140;11.516;2023-04-06T13:20:52;95560.0;;;15.4;25.4
50166;BME280;36071;48.140;11.516;2023-04-06T13:26:00;95570.0;;;15.5;24.9
50166;BME280;36071;48.140;11.516;2023-04-06T13:30:59;95550.0;;;15.3;25.3
50166;BME280;36071;48.140;11.516;2023-04-06T13:35:52;95560.0;;;15.6;24.0
50166;BME280;36071;48.140;11.516;2023-04-06T13:40:52;95550.0;;;16.3;23.8
50166;BME280;36071;48.140;11.516;2023-04-06T13:45:53;95550.0;;;16.0;24.1
50166;BME280;36071;48.140;11.516;2023-04-06T13:50:52;95550.0;;;15.2;23.8
50166;BME280;36071;48.140;11.516;2023-04-06T13:55:53;95470.0;;;15.2;26.4
50166;BME280;36071;48.140;11.516;2023-04-06T14:00:52;95530.0;;;15.8;26.5
50166;BME280;36071;48.140;11.516;2023-04-06T14:05:52;95550.0;;;15.2;24.7
50166;BME280;36071;48.140;11.516;2023-04-06T14:10:52;95530.0;;;15.4;25.3
50166;BME280;36071;48.140;11.516;2023-04-06T14:15:53;95540.0;;;14.8;25.5
50166;BME280;36071;48.140;11.516;2023-04-06T14:20:54;95540.0;;;14.4;26.5
50166;BME280;36071;48.140;11.516;2023-04-06T14:26:00;95530.0;;;14.1;26.3
50166;BME280;36071;48.140;11.516;2023-04-06T14:30:52;95480.0;;;13.7;26.5
50166;BME280;36071;48.140;11.516;2023-04-06T14:35:52;95530.0;;;14.0;26.4
50166;BME280;36071;48.140;11.516;2023-04-06T14:40:52;95520.0;;;14.1;26.1
50166;BME280;36071;48.140;11.516;2023-04-06T14:45:52;95530.0;;;13.6;27.2
50166;BME280;36071;48.140;11.516;2023-04-06T14:50:53;95520.0;;;13.9;26.7
50166;BME280;36071;48.140;11.516;2023-04-06T14:55:52;95520.0;;;13.8;27.0
50166;BME280;36071;48.140;11.516;2023-04-06T15:00:54;95520.0;;;13.7;26.6
50166;BME280;36071;48.140;11.516;2023-04-06T15:05:52;95510.0;;;14.5;26.1
50166;BME280;36071;48.140;11.516;2023-04-06T15:10:52;95500.0;;;14.6;25.0
50166;BME280;36071;48.140;11.516;2023-04-06T15:15:52;95500.0;;;14.4;24.3
50166;BME280;36071;48.140;11.516;2023-04-06T15:20:53;95510.0;;;14.1;24.6
50166;BME280;36071;48.140;11.516;2023-04-06T15:25:52;95440.0;;;12.9;25.1
50166;BME280;36071;48.140;11.516;2023-04-06T15:30:53;95520.0;;;13.9;25.0
50166;BME280;36071;48.140;11.516;2023-04-06T15:35:52;95510.0;;;13.9;24.8
50166;BME280;36071;48.140;11.516;2023-04-06T15:40:52;95510.0;;;14.1;24.8
50166;BME280;36071;48.140;11.516;2023-04-06T15:50:52;95520.0;;;13.5;25.4
50166;BME280;36071;48.140;11.516;2023-04-06T15:55:57;95520.0;;;13.3;25.9
50166;BME280;36071;48.140;11.516;2023-04-06T16:00:52;95510.0;;;13.1;26.6
50166;BME280;36071;48.140;11.516;2023-04-06T16:05:52;95520.0;;;13.4;29.0
50166;BME280;36071;48.140;11.516;2023-04-06T16:10:52;95510.0;;;13.3;27.1
50166;BME280;36071;48.140;11.516;2023-04-06T16:15:52;95510.0;;;13.4;26.3
50166;BME280;36071;48.140;11.516;2023-04-06T16:20:52;95510.0;;;13.5;26.9
50166;BME280;36071;48.140;11.516;2023-04-06T16:25:52;95510.0;;;13.1;26.0
50166;BME280;36071;48.140;11.516;2023-04-06T16:30:52;95510.0;;;13.2;27.1
50166;BME280;36071;48.140;11.516;2023-04-06T16:35:52;95520.0;;;13.2;27.2
50166;BME280;36071;48.140;11.516;2023-04-06T16:40:58;95510.0;;;12.9;27.7
50166;BME280;36071;48.140;11.516;2023-04-06T16:45:52;95520.0;;;13.2;28.5
50166;BME280;36071;48.140;11.516;2023-04-06T16:50:52;95520.0;;;13.1;27.8
50166;BME280;36071;48.140;11.516;2023-04-06T16:55:52;95510.0;;;12.7;27.3
50166;BME280;36071;48.140;11.516;2023-04-06T17:00:52;95520.0;;;12.7;27.6
50166;BME280;36071;48.140;11.516;2023-04-06T17:05:52;95520.0;;;12.6;28.5
50166;BME280;36071;48.140;11.516;2023-04-06T17:10:52;95530.0;;;12.5;27.7
50166;BME280;36071;48.140;11.516;2023-04-06T17:15:52;95520.0;;;12.5;28.0
50166;BME280;36071;48.140;11.516;2023-04-06T17:20:52;95520.0;;;12.3;27.9
50166;BME280;36071;48.140;11.516;2023-04-06T17:25:52;95520.0;;;12.3;28.0
50166;BME280;36071;48.140;11.516;2023-04-06T17:30:52;95530.0;;;12.2;28.5
50166;BME280;36071;48.140;11.516;2023-04-06T17:35:53;95530.0;;;12.1;28.7
50166;BME280;36071;48.140;11.516;2023-04-06T17:40:52;95520.0;;;11.9;29.5
50166;BME280;36071;48.140;11.516;2023-04-06T17:45:52;95530.0;;;11.8;29.6
50166;BME280;36071;48.140;11.516;2023-04-06T17:50:52;95540.0;;;11.8;29.5
50166;BME280;36071;48.140;11.516;2023-04-06T17:55:52;95540.0;;;11.7;29.9
50166;BME280;36071;48.140;11.516;2023-04-06T18:00:52;95540.0;;;11.5;30.3
50166;BME280;36071;48.140;11.516;2023-04-06T18:05:52;95550.0;;;11.5;30.0
50166;BME280;36071;48.140;11.516;2023-04-06T18:10:52;95560.0;;;11.3;30.5
50166;BME280;36071;48.140;11.516;2023-04-06T18:15:52;95570.0;;;11.2;31.1
50166;BME280;36071;48.140;11.516;2023-04-06T18:20:52;95560.0;;;11.1;31.2
50166;BME280;36071;48.140;11.516;2023-04-06T18:25:52;95560.0;;;11.0;31.1
50166;BME280;36071;48.140;11.516;2023-04-06T18:30:52;95570.0;;;10.9;31.7
50166;BME280;36071;48.140;11.516;2023-04-06T18:35:52;95570.0;;;10.8;32.1
50166;BME280;36071;48.140;11.516;2023-04-06T18:40:52;95570.0;;;10.8;31.9
50166;BME280;36071;48.140;11.516;2023-04-06T18:45:52;95580.0;;;10.8;32.3
50166;BME280;36071;48.140;11.516;2023-04-06T18:50:52;95580.0;;;10.7;32.7
50166;BME280;36071;48.140;11.516;2023-04-06T18:55:54;95590.0;;;10.6;33.3
50166;BME280;36071;48.140;11.516;2023-04-06T19:00:54;95590.0;;;10.5;34.0
50166;BME280;36071;48.140;11.516;2023-04-06T19:05:52;95600.0;;;10.4;34.0
50166;BME280;36071;48.140;11.516;2023-04-06T19:10:52;95600.0;;;10.4;34.2
50166;BME280;36071;48.140;11.516;2023-04-06T19:15:52;95610.0;;;10.3;34.3
50166;BME280;36071;48.140;11.516;2023-04-06T19:20:52;95610.0;;;10.1;34.7
50166;BME280;36071;48.140;11.516;2023-04-06T19:25:52;95610.0;;;10.0;35.2
50166;BME280;36071;48.140;11.516;2023-04-06T19:30:52;95610.0;;;9.9;35.8
50166;BME280;36071;48.140;11.516;2023-04-06T19:35:52;95610.0;;;9.8;37.5
50166;BME280;36071;48.140;11.516;2023-04-06T19:40:55;95610.0;;;9.7;36.7
50166;BME280;36071;48.140;11.516;2023-04-06T19:45:52;95610.0;;;9.6;36.3
50166;BME280;36071;48.140;11.516;2023-04-06T19:50:52;95610.0;;;9.5;36.9
50166;BME280;36071;48.140;11.516;2023-04-06T19:55:52;95610.0;;;9.4;35.7
50166;BME280;36071;48.140;11.516;2023-04-06T20:00:52;95610.0;;;9.5;35.4
50166;BME280;36071;48.140;11.516;2023-04-06T20:05:52;95620.0;;;9.5;35.5
50166;BME280;36071;48.140;11.516;2023-04-06T20:15:52;95610.0;;;9.4;35.7
50166;BME280;36071;48.140;11.516;2023-04-06T20:20:52;95610.0;;;9.4;35.9
50166;BME280;36071;48.140;11.516;2023-04-06T20:30:53;95600.0;;;9.3;36.0
50166;BME280;36071;48.140;11.516;2023-04-06T20:35:56;95610.0;;;9.2;36.6
50166;BME280;36071;48.140;11.516;2023-04-06T20:40:52;95600.0;;;9.1;36.5
50166;BME280;36071;48.140;11.516;2023-04-06T20:45:52;95600.0;;;9.0;37.0
50166;BME280;36071;48.140;11.516;2023-04-06T20:50:52;95590.0;;;8.9;36.9
50166;BME280;36071;48.140;11.516;2023-04-06T20:55:52;95600.0;;;8.8;37.6
50166;BME280;36071;48.140;11.516;2023-04-06T21:00:52;95600.0;;;8.8;37.5
50166;BME280;36071;48.140;11.516;2023-04-06T21:05:53;95590.0;;;8.6;37.8
50166;BME280;36071;48.140;11.516;2023-04-06T21:10:52;95600.0;;;8.4;38.3
50166;BME280;36071;48.140;11.516;2023-04-06T21:15:52;95590.0;;;8.3;38.7
50166;BME280;36071;48.140;11.516;2023-04-06T21:20:52;95590.0;;;8.2;38.8
50166;BME280;36071;48.140;11.516;2023-04-06T21:25:52;95590.0;;;8.1;38.9
50166;BME280;36071;48.140;11.516;2023-04-06T21:30:53;95590.0;;;8.0;39.1
50166;BME280;36071;48.140;11.516;2023-04-06T21:35:52;95590.0;;;8.1;39.3
50166;BME280;36071;48.140;11.516;2023-04-06T21:40:53;95580.0;;;8.0;38.8
50166;BME280;36071;48.140;11.516;2023-04-06T21:45:52;95580.0;;;7.9;39.0
50166;BME280;36071;48.140;11.516;2023-04-06T21:50:52;95580.0;;;7.7;39.6
50166;BME280;36071;48.140;11.516;2023-04-06T21:55:52;95580.0;;;7.7;39.8
50166;BME280;36071;48.140;11.516;2023-04-06T22:00:52;95590.0;;;7.7;39.9
50166;BME280;36071;48.140;11.516;2023-04-06T22:05:52;95580.0;;;7.8;40.0
50166;BME280;36071;48.140;11.516;2023-04-06T22:10:52;95580.0;;;7.9;40.0
50166;BME280;36071;48.140;11.516;2023-04-06T22:15:52;95580.0;;;7.8;40.2
50166;BME280;36071;48.140;11.516;2023-04-06T22:20:52;95570.0;;;7.8;40.0
50166;BME280;36071;48.140;11.516;2023-04-06T22:25:52;95510.0;;;7.3;40.3
50166;BME280;36071;48.140;11.516;2023-04-06T22:30:52;95560.0;;;7.7;40.8
50166;BME280;36071;48.140;11.516;2023-04-06T22:35:52;95560.0;;;7.7;40.4
50166;BME280;36071;48.140;11.516;2023-04-06T22:40:52;95560.0;;;7.7;40.2
50166;BME280;36071;48.140;11.516;2023-04-06T22:45:52;95550.0;;;7.7;40.2
50166;BME280;36071;48.140;11.516;2023-04-06T22:50:52;95540.0;;;7.7;40.2
50166;BME280;36071;48.140;11.516;2023-04-06T22:55:52;95490.0;;;7.2;40.8
50166;BME280;36071;48.140;11.516;2023-04-06T23:00:53;95540.0;;;7.6;40.4
50166;BME280;36071;48.140;11.516;2023-04-06T23:05:52;95550.0;;;7.5;40.9
50166;BME280;36071;48.140;11.516;2023-04-06T23:10:52;95550.0;;;7.3;41.2
50166;BME280;36071;48.140;11.516;2023-04-06T23:15:52;95540.0;;;7.3;41.4
50166;BME280;36071;48.140;11.516;2023-04-06T23:20:52;95540.0;;;7.2;41.6
50166;BME280;36071;48.140;11.516;2023-04-06T23:25:52;95540.0;;;7.1;42.0
50166;BME280;36071;48.140;11.516;2023-04-06T23:30:53;95530.0;;;7.0;42.2
50166;BME280;36071;48.140;11.516;2023-04-06T23:35:52;95550.0;;;6.9;42.5
50166;BME280;36071;48.140;11.516;2023-04-06T23:40:52;95540.0;;;6.7;42.9
50166;BME280;36071;48.140;11.516;2023-04-06T23:45:52;95540.0;;;6.5;43.3
50166;BME280;36071;48.140;11.516;2023-04-06T23:50:52;95530.0;;;6.4;43.6
50166;BME280;36071;48.140;11.516;2023-04-06T23:55:53;95530.0;;;6.2;44.2
